sensor_id;sensor_type;location;lat;lon;timestamp;P1;durP1;ratioP1;P2;durP2;ratioP2
61393;SDS011;48555;50.952;-0.120;2023-06-14T00:02:09;6.30;;;2.40;;
61393;SDS011;48555;50.952;-0.120;2023-06-14T00:04:34;6.07;;;3.10;;
61393;SDS011;48555;50.952;-0.120;2023-06-14T00:07:00;4.72;;;2.50;;
61393;SDS011;48555;50.952;-0.120;2023-06-14T00:09:25;6.43;;;2.60;;
61393;SDS011;48555;50.952;-0.120;2023-06-14T00:11:51;5.72;;;2.65;;
61393;SDS011;48555;50.952;-0.120;2023-06-14T00:14:17;5.35;;;2.85;;
61393;SDS011;48555;50.952;-0.120;2023-06-14T00:16:42;5.45;;;2.38;;
61393;SDS011;48555;50.952;-0.120;2023-06-14T00:19:10;5.95;;;2.45;;
61393;SDS011;48555;50.952;-0.120;2023-06-14T00:21:36;5.88;;;2.55;;
61393;SDS011;48555;50.952;-0.120;2023-06-14T00:24:03;5.25;;;2.65;;
61393;SDS011;48555;50.952;-0.120;2023-06-14T00:26:29;5.38;;;2.90;;
61393;SDS011;48555;50.952;-0.120;2023-06-14T00:28:55;5.10;;;2.60;;
61393;SDS011;48555;50.952;-0.120;2023-06-14T00:31:21;7.95;;;2.85;;
61393;SDS011;48555;50.952;-0.120;2023-06-14T00:33:47;5.93;;;2.60;;
61393;SDS011;48555;50.952;-0.120;2023-06-14T00:36:12;5.15;;;2.67;;
61393;SDS011;48555;50.952;-0.120;2023-06-14T00:38:38;7.07;;;2.50;;
61393;SDS011;48555;50.952;-0.120;2023-06-14T00:41:03;5.10;;;2.60;;
61393;SDS011;48555;50.952;-0.120;2023-06-14T00:43:28;5.18;;;2.50;;
61393;SDS011;48555;50.952;-0.120;2023-06-14T00:45:54;4.05;;;2.20;;
61393;SDS011;48555;50.952;-0.120;2023-06-14T00:48:19;4.95;;;2.30;;
61393;SDS011;48555;50.952;-0.120;2023-06-14T00:50:45;5.78;;;2.60;;
61393;SDS011;48555;50.952;-0.120;2023-06-14T00:53:14;5.07;;;2.60;;
61393;SDS011;48555;50.952;-0.120;2023-06-14T00:55:42;4.50;;;2.30;;
61393;SDS011;48555;50.952;-0.120;2023-06-14T00:58:08;5.45;;;2.83;;
61393;SDS011;48555;50.952;-0.120;2023-06-14T01:00:35;4.65;;;2.40;;
61393;SDS011;48555;50.952;-0.120;2023-06-14T01:03:00;5.03;;;2.60;;
61393;SDS011;48555;50.952;-0.120;2023-06-14T01:05:26;4.50;;;2.40;;
61393;SDS011;48555;50.952;-0.120;2023-06-14T01:11:12;5.22;;;2.40;;
61393;SDS011;48555;50.952;-0.120;2023-06-14T01:13:45;7.38;;;2.30;;
61393;SDS011;48555;50.952;-0.120;2023-06-14T01:16:11;5.00;;;2.63;;
61393;SDS011;48555;50.952;-0.120;2023-06-14T01:18:37;6.93;;;2.72;;
61393;SDS011;48555;50.952;-0.120;2023-06-14T01:21:03;4.95;;;2.63;;
61393;SDS011;48555;50.952;-0.120;2023-06-14T01:23:33;4.87;;;2.40;;
61393;SDS011;48555;50.952;-0.120;2023-06-14T01:25:59;5.43;;;2.90;;
61393;SDS011;48555;50.952;-0.120;2023-06-14T01:28:28;4.65;;;2.40;;
61393;SDS011;48555;50.952;-0.120;2023-06-14T01:30:57;5.80;;;2.85;;
61393;SDS011;48555;50.952;-0.120;2023-06-14T01:33:26;6.18;;;2.75;;
61393;SDS011;48555;50.952;-0.120;2023-06-14T01:35:53;5.75;;;2.90;;
61393;SDS011;48555;50.952;-0.120;2023-06-14T01:38:20;4.47;;;2.72;;
61393;SDS011;48555;50.952;-0.120;2023-06-14T01:40:48;4.82;;;2.70;;
61393;SDS011;48555;50.952;-0.120;2023-06-14T01:43:16;5.13;;;2.60;;
61393;SDS011;48555;50.952;-0.120;2023-06-14T01:45:42;6.82;;;2.72;;
61393;SDS011;48555;50.952;-0.120;2023-06-14T01:48:10;4.93;;;2.90;;
61393;SDS011;48555;50.952;-0.120;2023-06-14T01:50:36;5.00;;;2.80;;
61393;SDS011;48555;50.952;-0.120;2023-06-14T01:53:02;5.22;;;2.72;;
61393;SDS011;48555;50.952;-0.120;2023-06-14T01:55:27;4.25;;;2.50;;
61393;SDS011;48555;50.952;-0.120;2023-06-14T01:57:53;5.13;;;2.67;;
61393;SDS011;48555;50.952;-0.120;2023-06-14T02:00:19;4.43;;;2.75;;
61393;SDS011;48555;50.952;-0.120;2023-06-14T02:02:46;7.07;;;2.55;;
61393;SDS011;48555;50.952;-0.120;2023-06-14T02:05:12;3.97;;;2.60;;
61393;SDS011;48555;50.952;-0.120;2023-06-14T02:07:37;6.40;;;2.83;;
61393;SDS011;48555;50.952;-0.120;2023-06-14T02:10:03;5.25;;;2.88;;
61393;SDS011;48555;50.952;-0.120;2023-06-14T02:12:29;6.53;;;2.92;;
61393;SDS011;48555;50.952;-0.120;2023-06-14T02:14:54;5.68;;;2.90;;
61393;SDS011;48555;50.952;-0.120;2023-06-14T02:17:21;6.85;;;2.78;;
61393;SDS011;48555;50.952;-0.120;2023-06-14T02:19:46;5.65;;;2.80;;
61393;SDS011;48555;50.952;-0.120;2023-06-14T02:22:12;4.53;;;2.75;;
61393;SDS011;48555;50.952;-0.120;2023-06-14T02:24:39;6.03;;;2.97;;
61393;SDS011;48555;50.952;-0.120;2023-06-14T02:27:05;6.00;;;2.90;;
61393;SDS011;48555;50.952;-0.120;2023-06-14T02:29:31;7.38;;;2.83;;
61393;SDS011;48555;50.952;-0.120;2023-06-14T02:31:57;4.70;;;2.65;;
61393;SDS011;48555;50.952;-0.120;2023-06-14T02:34:22;4.60;;;2.63;;
61393;SDS011;48555;50.952;-0.120;2023-06-14T02:36:47;5.40;;;2.92;;
61393;SDS011;48555;50.952;-0.120;2023-06-14T02:39:13;5.60;;;2.60;;
61393;SDS011;48555;50.952;-0.120;2023-06-14T02:41:39;4.97;;;2.50;;
61393;SDS011;48555;50.952;-0.120;2023-06-14T02:44:04;4.13;;;2.45;;
61393;SDS011;48555;50.952;-0.120;2023-06-14T02:46:30;4.85;;;2.63;;
61393;SDS011;48555;50.952;-0.120;2023-06-14T02:48:55;4.55;;;2.63;;
61393;SDS011;48555;50.952;-0.120;2023-06-14T02:51:21;4.15;;;2.45;;
61393;SDS011;48555;50.952;-0.120;2023-06-14T02:53:46;6.75;;;2.70;;
61393;SDS011;48555;50.952;-0.120;2023-06-14T02:56:11;4.57;;;2.30;;
61393;SDS011;48555;50.952;-0.120;2023-06-14T02:58:37;5.00;;;2.50;;
61393;SDS011;48555;50.952;-0.120;2023-06-14T03:01:04;4.70;;;2.70;;
61393;SDS011;48555;50.952;-0.120;2023-06-14T03:03:32;5.05;;;2.80;;
61393;SDS011;48555;50.952;-0.120;2023-06-14T03:05:58;4.97;;;2.83;;
61393;SDS011;48555;50.952;-0.120;2023-06-14T03:10:56;7.20;;;2.97;;
61393;SDS011;48555;50.952;-0.120;2023-06-14T03:13:22;6.07;;;2.40;;
61393;SDS011;48555;50.952;-0.120;2023-06-14T03:15:48;5.03;;;2.60;;
61393;SDS011;48555;50.952;-0.120;2023-06-14T03:18:16;5.35;;;2.70;;
61393;SDS011;48555;50.952;-0.120;2023-06-14T03:20:41;4.95;;;2.70;;
61393;SDS011;48555;50.952;-0.120;2023-06-14T03:23:10;4.38;;;2.28;;
61393;SDS011;48555;50.952;-0.120;2023-06-14T03:25:36;7.10;;;2.53;;
61393;SDS011;48555;50.952;-0.120;2023-06-14T03:28:03;5.68;;;2.40;;
61393;SDS011;48555;50.952;-0.120;2023-06-14T03:30:31;4.72;;;2.30;;
61393;SDS011;48555;50.952;-0.120;2023-06-14T03:32:57;6.95;;;2.70;;
61393;SDS011;48555;50.952;-0.120;2023-06-14T03:35:25;5.32;;;2.70;;
61393;SDS011;48555;50.952;-0.120;2023-06-14T03:37:51;6.13;;;2.97;;
61393;SDS011;48555;50.952;-0.120;2023-06-14T03:40:17;5.00;;;2.67;;
61393;SDS011;48555;50.952;-0.120;2023-06-14T03:42:43;6.05;;;2.80;;
61393;SDS011;48555;50.952;-0.120;2023-06-14T03:45:09;6.03;;;2.50;;
61393;SDS011;48555;50.952;-0.120;2023-06-14T03:47:34;5.45;;;2.67;;
61393;SDS011;48555;50.952;-0.120;2023-06-14T03:50:00;6.25;;;2.75;;
61393;SDS011;48555;50.952;-0.120;2023-06-14T03:52:27;6.32;;;2.90;;
61393;SDS011;48555;50.952;-0.120;2023-06-14T03:54:53;5.03;;;2.50;;
61393;SDS011;48555;50.952;-0.120;2023-06-14T03:57:18;6.78;;;2.70;;
61393;SDS011;48555;50.952;-0.120;2023-06-14T03:59:45;5.47;;;2.88;;
61393;SDS011;48555;50.952;-0.120;2023-06-14T04:02:10;6.10;;;2.90;;
61393;SDS011;48555;50.952;-0.120;2023-06-14T04:04:36;7.78;;;3.28;;
61393;SDS011;48555;50.952;-0.120;2023-06-14T04:07:02;5.28;;;2.80;;
61393;SDS011;48555;50.952;-0.120;2023-06-14T04:09:28;9.50;;;3.58;;
61393;SDS011;48555;50.952;-0.120;2023-06-14T04:11:54;6.32;;;2.72;;
61393;SDS011;48555;50.952;-0.120;2023-06-14T04:14:20;7.40;;;3.10;;
61393;SDS011;48555;50.952;-0.120;2023-06-14T04:16:46;5.30;;;2.83;;
61393;SDS011;48555;50.952;-0.120;2023-06-14T04:19:12;6.07;;;2.92;;
61393;SDS011;48555;50.952;-0.120;2023-06-14T04:21:37;6.65;;;3.00;;
61393;SDS011;48555;50.952;-0.120;2023-06-14T04:24:02;5.80;;;2.70;;
61393;SDS011;48555;50.952;-0.120;2023-06-14T04:26:28;7.22;;;3.03;;
61393;SDS011;48555;50.952;-0.120;2023-06-14T04:28:54;6.07;;;2.70;;
61393;SDS011;48555;50.952;-0.120;2023-06-14T04:31:21;6.63;;;2.70;;
61393;SDS011;48555;50.952;-0.120;2023-06-14T04:33:50;5.45;;;2.70;;
61393;SDS011;48555;50.952;-0.120;2023-06-14T04:36:18;5.43;;;2.67;;
61393;SDS011;48555;50.952;-0.120;2023-06-14T04:38:44;5.03;;;2.45;;
61393;SDS011;48555;50.952;-0.120;2023-06-14T04:41:10;5.40;;;2.92;;
61393;SDS011;48555;50.952;-0.120;2023-06-14T04:43:36;5.65;;;2.78;;
61393;SDS011;48555;50.952;-0.120;2023-06-14T04:46:03;7.80;;;3.03;;
61393;SDS011;48555;50.952;-0.120;2023-06-14T04:48:30;5.32;;;2.65;;
61393;SDS011;48555;50.952;-0.120;2023-06-14T04:50:56;6.60;;;3.15;;
61393;SDS011;48555;50.952;-0.120;2023-06-14T04:53:22;6.43;;;2.90;;
61393;SDS011;48555;50.952;-0.120;2023-06-14T04:55:48;5.28;;;2.90;;
61393;SDS011;48555;50.952;-0.120;2023-06-14T04:58:14;8.57;;;2.92;;
61393;SDS011;48555;50.952;-0.120;2023-06-14T05:00:39;6.50;;;2.88;;
61393;SDS011;48555;50.952;-0.120;2023-06-14T05:03:04;6.85;;;3.05;;
61393;SDS011;48555;50.952;-0.120;2023-06-14T05:05:31;7.55;;;2.90;;
61393;SDS011;48555;50.952;-0.120;2023-06-14T05:07:57;6.63;;;2.92;;
61393;SDS011;48555;50.952;-0.120;2023-06-14T05:10:22;7.57;;;3.00;;
61393;SDS011;48555;50.952;-0.120;2023-06-14T05:12:48;6.38;;;2.90;;
61393;SDS011;48555;50.952;-0.120;2023-06-14T05:15:14;7.97;;;2.80;;
61393;SDS011;48555;50.952;-0.120;2023-06-14T05:17:39;7.60;;;3.03;;
61393;SDS011;48555;50.952;-0.120;2023-06-14T05:20:06;8.45;;;3.20;;
61393;SDS011;48555;50.952;-0.120;2023-06-14T05:22:32;8.50;;;3.20;;
61393;SDS011;48555;50.952;-0.120;2023-06-14T05:24:57;7.05;;;2.88;;
61393;SDS011;48555;50.952;-0.120;2023-06-14T05:27:22;9.48;;;3.55;;
61393;SDS011;48555;50.952;-0.120;2023-06-14T05:29:49;8.13;;;3.30;;
61393;SDS011;48555;50.952;-0.120;2023-06-14T05:32:15;8.77;;;3.17;;
61393;SDS011;48555;50.952;-0.120;2023-06-14T05:37:41;7.47;;;3.00;;
61393;SDS011;48555;50.952;-0.120;2023-06-14T05:40:06;7.75;;;3.05;;
61393;SDS011;48555;50.952;-0.120;2023-06-14T05:42:33;6.03;;;2.90;;
61393;SDS011;48555;50.952;-0.120;2023-06-14T05:44:59;9.05;;;3.10;;
61393;SDS011;48555;50.952;-0.120;2023-06-14T05:47:25;8.15;;;3.30;;
61393;SDS011;48555;50.952;-0.120;2023-06-14T05:49:50;5.97;;;2.63;;
61393;SDS011;48555;50.952;-0.120;2023-06-14T05:52:16;7.95;;;3.03;;
61393;SDS011;48555;50.952;-0.120;2023-06-14T05:54:41;8.55;;;3.38;;
61393;SDS011;48555;50.952;-0.120;2023-06-14T05:57:07;8.57;;;3.15;;
61393;SDS011;48555;50.952;-0.120;2023-06-14T05:59:32;7.38;;;3.50;;
61393;SDS011;48555;50.952;-0.120;2023-06-14T06:01:57;6.13;;;3.17;;
61393;SDS011;48555;50.952;-0.120;2023-06-14T06:04:23;7.85;;;3.22;;
61393;SDS011;48555;50.952;-0.120;2023-06-14T06:06:48;8.43;;;3.58;;
61393;SDS011;48555;50.952;-0.120;2023-06-14T06:09:14;8.98;;;3.85;;
61393;SDS011;48555;50.952;-0.120;2023-06-14T06:11:39;8.13;;;4.10;;
61393;SDS011;48555;50.952;-0.120;2023-06-14T06:14:05;8.85;;;3.47;;
61393;SDS011;48555;50.952;-0.120;2023-06-14T06:16:31;7.45;;;3.50;;
61393;SDS011;48555;50.952;-0.120;2023-06-14T06:18:56;9.43;;;3.40;;
61393;SDS011;48555;50.952;-0.120;2023-06-14T06:21:22;9.30;;;3.55;;
61393;SDS011;48555;50.952;-0.120;2023-06-14T06:23:48;7.90;;;3.63;;
61393;SDS011;48555;50.952;-0.120;2023-06-14T06:26:13;8.18;;;3.40;;
61393;SDS011;48555;50.952;-0.120;2023-06-14T06:28:38;11.00;;;3.53;;
61393;SDS011;48555;50.952;-0.120;2023-06-14T06:31:04;8.45;;;3.47;;
61393;SDS011;48555;50.952;-0.120;2023-06-14T06:33:30;7.65;;;3.90;;
61393;SDS011;48555;50.952;-0.120;2023-06-14T06:35:56;8.02;;;3.25;;
61393;SDS011;48555;50.952;-0.120;2023-06-14T06:38:21;8.90;;;3.90;;
61393;SDS011;48555;50.952;-0.120;2023-06-14T06:40:47;7.70;;;3.45;;
61393;SDS011;48555;50.952;-0.120;2023-06-14T06:43:12;7.90;;;3.53;;
61393;SDS011;48555;50.952;-0.120;2023-06-14T06:45:42;8.20;;;3.90;;
61393;SDS011;48555;50.952;-0.120;2023-06-14T06:48:08;9.35;;;4.07;;
61393;SDS011;48555;50.952;-0.120;2023-06-14T06:50:35;8.50;;;3.65;;
61393;SDS011;48555;50.952;-0.120;2023-06-14T06:53:01;10.00;;;3.45;;
61393;SDS011;48555;50.952;-0.120;2023-06-14T06:55:26;8.25;;;3.60;;
61393;SDS011;48555;50.952;-0.120;2023-06-14T06:57:51;9.10;;;3.83;;
61393;SDS011;48555;50.952;-0.120;2023-06-14T07:00:18;7.75;;;3.35;;
61393;SDS011;48555;50.952;-0.120;2023-06-14T07:02:44;8.68;;;3.50;;
61393;SDS011;48555;50.952;-0.120;2023-06-14T07:05:10;7.97;;;3.22;;
61393;SDS011;48555;50.952;-0.120;2023-06-14T07:07:35;7.20;;;3.60;;
61393;SDS011;48555;50.952;-0.120;2023-06-14T07:10:01;9.32;;;3.60;;
61393;SDS011;48555;50.952;-0.120;2023-06-14T07:12:29;7.50;;;3.58;;
61393;SDS011;48555;50.952;-0.120;2023-06-14T07:14:55;8.80;;;3.88;;
61393;SDS011;48555;50.952;-0.120;2023-06-14T07:17:21;10.20;;;3.63;;
61393;SDS011;48555;50.952;-0.120;2023-06-14T07:19:47;9.63;;;3.90;;
61393;SDS011;48555;50.952;-0.120;2023-06-14T07:22:12;9.25;;;3.45;;
61393;SDS011;48555;50.952;-0.120;2023-06-14T07:24:37;8.02;;;3.70;;
61393;SDS011;48555;50.952;-0.120;2023-06-14T07:27:05;9.07;;;3.70;;
61393;SDS011;48555;50.952;-0.120;2023-06-14T07:29:30;9.63;;;3.38;;
61393;SDS011;48555;50.952;-0.120;2023-06-14T07:31:56;10.65;;;3.42;;
61393;SDS011;48555;50.952;-0.120;2023-06-14T07:34:21;7.75;;;3.60;;
61393;SDS011;48555;50.952;-0.120;2023-06-14T07:36:46;7.75;;;3.42;;
61393;SDS011;48555;50.952;-0.120;2023-06-14T07:39:12;8.07;;;3.70;;
61393;SDS011;48555;50.952;-0.120;2023-06-14T07:41:38;9.48;;;3.30;;
61393;SDS011;48555;50.952;-0.120;2023-06-14T07:44:03;8.93;;;3.80;;
61393;SDS011;48555;50.952;-0.120;2023-06-14T07:46:28;7.18;;;3.85;;
61393;SDS011;48555;50.952;-0.120;2023-06-14T07:48:55;9.52;;;4.03;;
61393;SDS011;48555;50.952;-0.120;2023-06-14T07:51:20;9.90;;;4.10;;
61393;SDS011;48555;50.952;-0.120;2023-06-14T07:53:47;7.15;;;3.70;;
61393;SDS011;48555;50.952;-0.120;2023-06-14T07:56:13;8.75;;;3.70;;
61393;SDS011;48555;50.952;-0.120;2023-06-14T07:58:38;8.25;;;3.63;;
61393;SDS011;48555;50.952;-0.120;2023-06-14T08:01:03;9.63;;;3.80;;
61393;SDS011;48555;50.952;-0.120;2023-06-14T08:03:31;10.40;;;3.88;;
61393;SDS011;48555;50.952;-0.120;2023-06-14T08:05:57;7.72;;;4.05;;
61393;SDS011;48555;50.952;-0.120;2023-06-14T08:08:22;8.70;;;3.78;;
61393;SDS011;48555;50.952;-0.120;2023-06-14T08:10:48;9.80;;;4.00;;
61393;SDS011;48555;50.952;-0.120;2023-06-14T08:13:13;8.05;;;3.85;;
61393;SDS011;48555;50.952;-0.120;2023-06-14T08:15:38;10.55;;;4.05;;
61393;SDS011;48555;50.952;-0.120;2023-06-14T08:18:04;8.00;;;3.92;;
61393;SDS011;48555;50.952;-0.120;2023-06-14T08:20:29;8.13;;;3.67;;
61393;SDS011;48555;50.952;-0.120;2023-06-14T08:22:56;10.52;;;4.30;;
61393;SDS011;48555;50.952;-0.120;2023-06-14T08:25:22;7.38;;;3.80;;
61393;SDS011;48555;50.952;-0.120;2023-06-14T08:27:48;7.43;;;3.53;;
61393;SDS011;48555;50.952;-0.120;2023-06-14T08:30:13;7.95;;;4.00;;
61393;SDS011;48555;50.952;-0.120;2023-06-14T08:32:39;8.38;;;3.90;;
61393;SDS011;48555;50.952;-0.120;2023-06-14T08:35:04;8.15;;;3.97;;
61393;SDS011;48555;50.952;-0.120;2023-06-14T08:37:30;8.80;;;4.00;;
61393;SDS011;48555;50.952;-0.120;2023-06-14T08:39:56;7.93;;;3.80;;
61393;SDS011;48555;50.952;-0.120;2023-06-14T08:42:21;8.88;;;4.10;;
61393;SDS011;48555;50.952;-0.120;2023-06-14T08:44:49;7.85;;;4.00;;
61393;SDS011;48555;50.952;-0.120;2023-06-14T08:47:14;8.70;;;4.22;;
61393;SDS011;48555;50.952;-0.120;2023-06-14T08:49:42;9.05;;;4.10;;
61393;SDS011;48555;50.952;-0.120;2023-06-14T08:52:12;9.20;;;3.85;;
61393;SDS011;48555;50.952;-0.120;2023-06-14T08:54:38;10.82;;;4.50;;
61393;SDS011;48555;50.952;-0.120;2023-06-14T08:57:09;9.07;;;4.03;;
61393;SDS011;48555;50.952;-0.120;2023-06-14T08:59:37;9.88;;;4.18;;
61393;SDS011;48555;50.952;-0.120;2023-06-14T09:02:09;9.75;;;4.38;;
61393;SDS011;48555;50.952;-0.120;2023-06-14T09:04:39;11.67;;;4.10;;
61393;SDS011;48555;50.952;-0.120;2023-06-14T09:07:05;8.98;;;4.07;;
61393;SDS011;48555;50.952;-0.120;2023-06-14T09:09:31;9.48;;;3.92;;
61393;SDS011;48555;50.952;-0.120;2023-06-14T09:11:57;8.90;;;4.28;;
61393;SDS011;48555;50.952;-0.120;2023-06-14T09:14:23;7.68;;;3.55;;
61393;SDS011;48555;50.952;-0.120;2023-06-14T09:16:53;9.32;;;4.18;;
61393;SDS011;48555;50.952;-0.120;2023-06-14T09:19:23;8.25;;;3.80;;
61393;SDS011;48555;50.952;-0.120;2023-06-14T09:21:50;7.90;;;4.00;;
61393;SDS011;48555;50.952;-0.120;2023-06-14T09:24:17;9.50;;;4.65;;
61393;SDS011;48555;50.952;-0.120;2023-06-14T09:26:43;9.57;;;4.35;;
61393;SDS011;48555;50.952;-0.120;2023-06-14T09:29:12;6.95;;;3.83;;
61393;SDS011;48555;50.952;-0.120;2023-06-14T09:31:37;7.90;;;3.72;;
61393;SDS011;48555;50.952;-0.120;2023-06-14T09:34:02;9.95;;;4.28;;
61393;SDS011;48555;50.952;-0.120;2023-06-14T09:36:28;10.90;;;4.25;;
61393;SDS011;48555;50.952;-0.120;2023-06-14T09:39:01;9.65;;;4.10;;
61393;SDS011;48555;50.952;-0.120;2023-06-14T09:41:31;8.32;;;4.00;;
61393;SDS011;48555;50.952;-0.120;2023-06-14T09:44:01;7.40;;;3.67;;
61393;SDS011;48555;50.952;-0.120;2023-06-14T09:46:29;6.75;;;3.90;;
61393;SDS011;48555;50.952;-0.120;2023-06-14T09:48:58;9.15;;;4.15;;
61393;SDS011;48555;50.952;-0.120;2023-06-14T09:51:26;9.05;;;4.00;;
61393;SDS011;48555;50.952;-0.120;2023-06-14T09:53:52;6.30;;;3.97;;
61393;SDS011;48555;50.952;-0.120;2023-06-14T09:56:25;8.25;;;4.47;;
61393;SDS011;48555;50.952;-0.120;2023-06-14T09:58:54;7.68;;;4.00;;
61393;SDS011;48555;50.952;-0.120;2023-06-14T10:01:25;11.15;;;4.13;;
61393;SDS011;48555;50.952;-0.120;2023-06-14T10:04:06;8.75;;;3.85;;
61393;SDS011;48555;50.952;-0.120;2023-06-14T10:06:36;8.38;;;3.97;;
61393;SDS011;48555;50.952;-0.120;2023-06-14T10:09:07;10.65;;;4.10;;
61393;SDS011;48555;50.952;-0.120;2023-06-14T10:11:34;10.20;;;4.38;;
61393;SDS011;48555;50.952;-0.120;2023-06-14T10:14:00;11.15;;;4.18;;
61393;SDS011;48555;50.952;-0.120;2023-06-14T10:16:30;6.95;;;3.90;;
61393;SDS011;48555;50.952;-0.120;2023-06-14T10:21:46;7.97;;;4.05;;
61393;SDS011;48555;50.952;-0.120;2023-06-14T10:24:14;8.00;;;4.10;;
61393;SDS011;48555;50.952;-0.120;2023-06-14T10:26:53;8.15;;;4.00;;
61393;SDS011;48555;50.952;-0.120;2023-06-14T10:29:19;7.35;;;4.38;;
61393;SDS011;48555;50.952;-0.120;2023-06-14T10:31:45;8.60;;;4.45;;
61393;SDS011;48555;50.952;-0.120;2023-06-14T10:34:12;9.98;;;4.70;;
61393;SDS011;48555;50.952;-0.120;2023-06-14T10:36:50;9.27;;;4.45;;
61393;SDS011;48555;50.952;-0.120;2023-06-14T10:39:26;8.52;;;4.40;;
61393;SDS011;48555;50.952;-0.120;2023-06-14T10:41:53;7.00;;;3.90;;
61393;SDS011;48555;50.952;-0.120;2023-06-14T10:46:48;9.73;;;4.63;;
61393;SDS011;48555;50.952;-0.120;2023-06-14T10:49:18;9.35;;;4.50;;
61393;SDS011;48555;50.952;-0.120;2023-06-14T10:51:45;5.97;;;4.25;;
61393;SDS011;48555;50.952;-0.120;2023-06-14T10:54:14;9.50;;;4.47;;
61393;SDS011;48555;50.952;-0.120;2023-06-14T10:56:50;9.80;;;4.45;;
61393;SDS011;48555;50.952;-0.120;2023-06-14T10:59:17;7.03;;;4.00;;
61393;SDS011;48555;50.952;-0.120;2023-06-14T11:04:33;8.30;;;4.40;;
61393;SDS011;48555;50.952;-0.120;2023-06-14T11:07:21;7.53;;;4.32;;
61393;SDS011;48555;50.952;-0.120;2023-06-14T11:10:00;6.40;;;4.55;;
61393;SDS011;48555;50.952;-0.120;2023-06-14T11:12:58;8.55;;;4.30;;
61393;SDS011;48555;50.952;-0.120;2023-06-14T11:15:30;9.32;;;4.80;;
61393;SDS011;48555;50.952;-0.120;2023-06-14T11:17:56;8.32;;;4.63;;
61393;SDS011;48555;50.952;-0.120;2023-06-14T11:20:26;6.93;;;4.30;;
61393;SDS011;48555;50.952;-0.120;2023-06-14T11:22:53;7.40;;;4.40;;
61393;SDS011;48555;50.952;-0.120;2023-06-14T11:25:18;8.60;;;4.70;;
61393;SDS011;48555;50.952;-0.120;2023-06-14T11:27:44;9.40;;;4.80;;
61393;SDS011;48555;50.952;-0.120;2023-06-14T11:30:11;9.52;;;5.20;;
61393;SDS011;48555;50.952;-0.120;2023-06-14T11:32:38;8.32;;;4.65;;
61393;SDS011;48555;50.952;-0.120;2023-06-14T11:35:04;9.75;;;4.15;;
61393;SDS011;48555;50.952;-0.120;2023-06-14T11:37:30;6.72;;;4.38;;
61393;SDS011;48555;50.952;-0.120;2023-06-14T11:39:58;7.10;;;4.47;;
61393;SDS011;48555;50.952;-0.120;2023-06-14T11:44:55;7.25;;;4.60;;
61393;SDS011;48555;50.952;-0.120;2023-06-14T11:47:20;15.38;;;4.85;;
61393;SDS011;48555;50.952;-0.120;2023-06-14T11:49:46;8.93;;;4.78;;
61393;SDS011;48555;50.952;-0.120;2023-06-14T11:52:12;7.10;;;4.43;;
61393;SDS011;48555;50.952;-0.120;2023-06-14T11:54:38;7.60;;;4.10;;
61393;SDS011;48555;50.952;-0.120;2023-06-14T11:57:05;6.55;;;4.28;;
61393;SDS011;48555;50.952;-0.120;2023-06-14T11:59:40;10.10;;;5.00;;
61393;SDS011;48555;50.952;-0.120;2023-06-14T12:02:05;10.15;;;5.07;;
61393;SDS011;48555;50.952;-0.120;2023-06-14T12:04:32;9.63;;;4.47;;
61393;SDS011;48555;50.952;-0.120;2023-06-14T12:07:08;8.80;;;4.60;;
61393;SDS011;48555;50.952;-0.120;2023-06-14T12:09:39;7.22;;;4.47;;
61393;SDS011;48555;50.952;-0.120;2023-06-14T12:12:05;8.10;;;5.03;;
61393;SDS011;48555;50.952;-0.120;2023-06-14T12:14:31;7.07;;;4.80;;
61393;SDS011;48555;50.952;-0.120;2023-06-14T12:17:06;9.70;;;4.70;;
61393;SDS011;48555;50.952;-0.120;2023-06-14T12:19:32;7.93;;;5.20;;
61393;SDS011;48555;50.952;-0.120;2023-06-14T12:21:59;8.57;;;4.57;;
61393;SDS011;48555;50.952;-0.120;2023-06-14T12:24:28;5.97;;;4.53;;
61393;SDS011;48555;50.952;-0.120;2023-06-14T12:26:54;9.15;;;4.70;;
61393;SDS011;48555;50.952;-0.120;2023-06-14T12:29:22;7.45;;;5.20;;
61393;SDS011;48555;50.952;-0.120;2023-06-14T12:31:47;8.27;;;4.75;;
61393;SDS011;48555;50.952;-0.120;2023-06-14T12:34:13;8.68;;;4.95;;
61393;SDS011;48555;50.952;-0.120;2023-06-14T12:36:38;8.82;;;5.03;;
61393;SDS011;48555;50.952;-0.120;2023-06-14T12:41:34;6.85;;;4.03;;
61393;SDS011;48555;50.952;-0.120;2023-06-14T12:43:59;7.95;;;4.80;;
61393;SDS011;48555;50.952;-0.120;2023-06-14T12:46:29;9.02;;;5.25;;
61393;SDS011;48555;50.952;-0.120;2023-06-14T12:48:56;7.10;;;4.57;;
61393;SDS011;48555;50.952;-0.120;2023-06-14T12:51:21;9.43;;;4.82;;
61393;SDS011;48555;50.952;-0.120;2023-06-14T12:53:47;8.13;;;5.07;;
61393;SDS011;48555;50.952;-0.120;2023-06-14T12:56:13;7.85;;;4.60;;
61393;SDS011;48555;50.952;-0.120;2023-06-14T12:58:39;6.85;;;4.32;;
61393;SDS011;48555;50.952;-0.120;2023-06-14T13:01:04;10.07;;;4.88;;
61393;SDS011;48555;50.952;-0.120;2023-06-14T13:03:30;8.30;;;4.63;;
61393;SDS011;48555;50.952;-0.120;2023-06-14T13:05:55;8.63;;;4.97;;
61393;SDS011;48555;50.952;-0.120;2023-06-14T13:08:21;9.48;;;4.90;;
61393;SDS011;48555;50.952;-0.120;2023-06-14T13:10:47;7.00;;;4.75;;
61393;SDS011;48555;50.952;-0.120;2023-06-14T13:13:12;8.02;;;5.03;;
61393;SDS011;48555;50.952;-0.120;2023-06-14T13:15:38;8.07;;;4.90;;
61393;SDS011;48555;50.952;-0.120;2023-06-14T13:18:04;10.82;;;5.18;;
61393;SDS011;48555;50.952;-0.120;2023-06-14T13:20:30;8.32;;;4.45;;
61393;SDS011;48555;50.952;-0.120;2023-06-14T13:22:56;8.23;;;4.78;;
61393;SDS011;48555;50.952;-0.120;2023-06-14T13:25:22;8.73;;;5.18;;
61393;SDS011;48555;50.952;-0.120;2023-06-14T13:27:48;9.30;;;4.82;;
61393;SDS011;48555;50.952;-0.120;2023-06-14T13:30:13;8.35;;;4.90;;
61393;SDS011;48555;50.952;-0.120;2023-06-14T13:32:39;12.20;;;5.30;;
61393;SDS011;48555;50.952;-0.120;2023-06-14T13:35:05;9.73;;;5.53;;
61393;SDS011;48555;50.952;-0.120;2023-06-14T13:37:30;9.07;;;5.00;;
61393;SDS011;48555;50.952;-0.120;2023-06-14T13:39:56;7.38;;;4.88;;
61393;SDS011;48555;50.952;-0.120;2023-06-14T13:42:21;7.25;;;5.00;;
61393;SDS011;48555;50.952;-0.120;2023-06-14T13:44:47;8.13;;;4.88;;
61393;SDS011;48555;50.952;-0.120;2023-06-14T13:47:12;9.40;;;5.05;;
61393;SDS011;48555;50.952;-0.120;2023-06-14T13:49:38;8.40;;;5.25;;
61393;SDS011;48555;50.952;-0.120;2023-06-14T13:52:03;8.38;;;4.43;;
61393;SDS011;48555;50.952;-0.120;2023-06-14T13:54:29;11.00;;;4.90;;
61393;SDS011;48555;50.952;-0.120;2023-06-14T13:56:54;9.82;;;5.10;;
61393;SDS011;48555;50.952;-0.120;2023-06-14T13:59:19;7.82;;;4.95;;
61393;SDS011;48555;50.952;-0.120;2023-06-14T14:01:45;9.02;;;4.95;;
61393;SDS011;48555;50.952;-0.120;2023-06-14T14:04:10;7.43;;;4.63;;
61393;SDS011;48555;50.952;-0.120;2023-06-14T14:06:36;8.10;;;4.43;;
61393;SDS011;48555;50.952;-0.120;2023-06-14T14:09:01;8.73;;;5.18;;
61393;SDS011;48555;50.952;-0.120;2023-06-14T14:11:27;7.72;;;5.05;;
61393;SDS011;48555;50.952;-0.120;2023-06-14T14:13:53;7.43;;;4.68;;
61393;SDS011;48555;50.952;-0.120;2023-06-14T14:16:18;7.13;;;5.00;;
61393;SDS011;48555;50.952;-0.120;2023-06-14T14:18:45;10.35;;;5.28;;
61393;SDS011;48555;50.952;-0.120;2023-06-14T14:21:11;8.52;;;4.82;;
61393;SDS011;48555;50.952;-0.120;2023-06-14T14:23:36;8.23;;;4.78;;
61393;SDS011;48555;50.952;-0.120;2023-06-14T14:26:02;8.07;;;4.80;;
61393;SDS011;48555;50.952;-0.120;2023-06-14T14:28:29;8.98;;;5.50;;
61393;SDS011;48555;50.952;-0.120;2023-06-14T14:30:55;6.85;;;5.00;;
61393;SDS011;48555;50.952;-0.120;2023-06-14T14:33:21;6.55;;;4.70;;
61393;SDS011;48555;50.952;-0.120;2023-06-14T14:35:46;7.03;;;4.85;;
61393;SDS011;48555;50.952;-0.120;2023-06-14T14:38:12;8.18;;;4.90;;
61393;SDS011;48555;50.952;-0.120;2023-06-14T14:40:39;8.90;;;4.72;;
61393;SDS011;48555;50.952;-0.120;2023-06-14T14:43:05;5.78;;;4.70;;
61393;SDS011;48555;50.952;-0.120;2023-06-14T14:45:31;7.60;;;4.90;;
61393;SDS011;48555;50.952;-0.120;2023-06-14T14:47:56;7.65;;;4.65;;
61393;SDS011;48555;50.952;-0.120;2023-06-14T14:50:22;8.52;;;4.85;;
61393;SDS011;48555;50.952;-0.120;2023-06-14T14:52:47;7.25;;;4.88;;